sensor_id;sensor_type;location;lat;lon;timestamp;pressure;altitude;pressure_sealevel;temperature;humidity
21236;BME280;10775;42.678;26.324;2023-04-20T00:02:08;98186.91;;;10.26;100.00
21236;BME280;10775;42.678;26.324;2023-04-20T00:04:34;98180.59;;;10.35;100.00
21236;BME280;10775;42.678;26.324;2023-04-20T00:07:00;98182.25;;;10.39;100.00
21236;BME280;10775;42.678;26.324;2023-04-20T00:09:26;98180.50;;;10.38;100.00
21236;BME280;10775;42.678;26.324;2023-04-20T00:11:52;98183.19;;;10.35;100.00
21236;BME280;10775;42.678;26.324;2023-04-20T00:14:17;98175.84;;;10.15;100.00
21236;BME280;10775;42.678;26.324;2023-04-20T00:16:43;98178.16;;;10.27;100.00
21236;BME280;10775;42.678;26.324;2023-04-20T00:19:09;98167.72;;;10.29;100.00
21236;BME280;10775;42.678;26.324;2023-04-20T00:21:35;98167.50;;;10.36;100.00
21236;BME280;10775;42.678;26.324;2023-04-20T00:24:00;98170.06;;;10.38;100.00
21236;BME280;10775;42.678;26.324;2023-04-20T00:26:26;98166.47;;;10.42;100.00
21236;BME280;10775;42.678;26.324;2023-04-20T00:28:52;98156.78;;;10.45;100.00
21236;BME280;10775;42.678;26.324;2023-04-20T00:31:19;98164.69;;;10.42;100.00
21236;BME280;10775;42.678;26.324;2023-04-20T00:33:45;98167.41;;;10.39;100.00
21236;BME280;10775;42.678;26.324;2023-04-20T00:36:11;98169.28;;;10.34;100.00
21236;BME280;10775;42.678;26.324;2023-04-20T00:38:36;98159.81;;;10.30;100.00
21236;BME280;10775;42.678;26.324;2023-04-20T00:41:02;98153.78;;;10.27;100.00
21236;BME280;10775;42.678;26.324;2023-04-20T00:43:27;98160.91;;;10.20;100.00
21236;BME280;10775;42.678;26.324;2023-04-20T00:45:53;98163.53;;;10.20;100.00
21236;BME280;10775;42.678;26.324;2023-04-20T00:48:19;98157.44;;;10.21;100.00
21236;BME280;10775;42.678;26.324;2023-04-20T00:50:45;98163.59;;;10.18;100.00
21236;BME280;10775;42.678;26.324;2023-04-20T00:53:11;98159.25;;;10.17;100.00
21236;BME280;10775;42.678;26.324;2023-04-20T00:55:38;98159.34;;;10.14;100.00
21236;BME280;10775;42.678;26.324;2023-04-20T00:58:03;98156.84;;;10.10;100.00
21236;BME280;10775;42.678;26.324;2023-04-20T01:00:29;98154.47;;;10.00;100.00
21236;BME280;10775;42.678;26.324;2023-04-20T01:02:55;98149.25;;;10.00;100.00
21236;BME280;10775;42.678;26.324;2023-04-20T01:05:21;98151.91;;;9.99;100.00
21236;BME280;10775;42.678;26.324;2023-04-20T01:07:46;98147.47;;;10.02;100.00
21236;BME280;10775;42.678;26.324;2023-04-20T01:10:12;98152.63;;;10.04;100.00
21236;BME280;10775;42.678;26.324;2023-04-20T01:12:37;98154.63;;;9.94;100.00
21236;BME280;10775;42.678;26.324;2023-04-20T01:15:04;98147.63;;;9.96;100.00
21236;BME280;10775;42.678;26.324;2023-04-20T01:17:33;98147.91;;;9.84;100.00
21236;BME280;10775;42.678;26.324;2023-04-20T01:20:01;98142.03;;;9.76;100.00
21236;BME280;10775;42.678;26.324;2023-04-20T01:22:26;98143.72;;;9.78;100.00
21236;BME280;10775;42.678;26.324;2023-04-20T01:24:52;98145.44;;;9.79;100.00
21236;BME280;10775;42.678;26.324;2023-04-20T01:27:18;98146.31;;;9.80;100.00
21236;BME280;10775;42.678;26.324;2023-04-20T01:29:44;98147.16;;;9.80;100.00
21236;BME280;10775;42.678;26.324;2023-04-20T01:32:10;98142.88;;;9.78;100.00
21236;BME280;10775;42.678;26.324;2023-04-20T01:34:36;98139.31;;;9.80;100.00
21236;BME280;10775;42.678;26.324;2023-04-20T01:37:03;98148.75;;;9.86;100.00
21236;BME280;10775;42.678;26.324;2023-04-20T01:39:37;98139.13;;;9.88;100.00
21236;BME280;10775;42.678;26.324;2023-04-20T01:42:03;98141.91;;;9.82;100.00
21236;BME280;10775;42.678;26.324;2023-04-20T01:44:29;98139.97;;;9.89;100.00
21236;BME280;10775;42.678;26.324;2023-04-20T01:46:54;98145.50;;;9.76;100.00
21236;BME280;10775;42.678;26.324;2023-04-20T01:49:20;98148.13;;;9.76;100.00
21236;BME280;10775;42.678;26.324;2023-04-20T01:51:45;98141.28;;;9.72;100.00
21236;BME280;10775;42.678;26.324;2023-04-20T01:54:11;98142.22;;;9.68;100.00
21236;BME280;10775;42.678;26.324;2023-04-20T01:56:36;98143.03;;;9.72;100.00
21236;BME280;10775;42.678;26.324;2023-04-20T01:59:01;98144.72;;;9.73;100.00
21236;BME280;10775;42.678;26.324;2023-04-20T02:01:27;98141.09;;;9.80;100.00
21236;BME280;10775;42.678;26.324;2023-04-20T02:03:52;98140.16;;;9.83;100.00
21236;BME280;10775;42.678;26.324;2023-04-20T02:06:18;98136.59;;;9.85;100.00
21236;BME280;10775;42.678;26.324;2023-04-20T02:08:43;98140.09;;;9.84;100.00
21236;BME280;10775;42.678;26.324;2023-04-20T02:11:09;98133.09;;;9.86;100.00
21236;BME280;10775;42.678;26.324;2023-04-20T02:13:34;98134.09;;;9.80;100.00
21236;BME280;10775;42.678;26.324;2023-04-20T02:16:00;98129.00;;;9.76;100.00
21236;BME280;10775;42.678;26.324;2023-04-20T02:18:25;98128.06;;;9.78;100.00
21236;BME280;10775;42.678;26.324;2023-04-20T02:20:51;98130.94;;;9.68;100.00
21236;BME280;10775;42.678;26.324;2023-04-20T02:23:17;98138.19;;;9.56;100.00
21236;BME280;10775;42.678;26.324;2023-04-20T02:25:43;98131.41;;;9.49;100.00
21236;BME280;10775;42.678;26.324;2023-04-20T02:28:08;98133.38;;;9.38;100.00
21236;BME280;10775;42.678;26.324;2023-04-20T02:30:34;98132.44;;;9.42;100.00
21236;BME280;10775;42.678;26.324;2023-04-20T02:32:59;98121.53;;;9.62;100.00
21236;BME280;10775;42.678;26.324;2023-04-20T02:35:25;98126.16;;;9.85;100.00
21236;BME280;10775;42.678;26.324;2023-04-20T02:37:51;98114.34;;;9.70;100.00
21236;BME280;10775;42.678;26.324;2023-04-20T02:40:16;98114.69;;;9.56;100.00
21236;BME280;10775;42.678;26.324;2023-04-20T02:42:42;98114.34;;;9.70;100.00
21236;BME280;10775;42.678;26.324;2023-04-20T02:45:08;98113.44;;;9.71;100.00
21236;BME280;10775;42.678;26.324;2023-04-20T02:47:33;98120.88;;;9.87;100.00
21236;BME280;10775;42.678;26.324;2023-04-20T02:49:59;98126.38;;;9.76;100.00
21236;BME280;10775;42.678;26.324;2023-04-20T02:52:24;98121.47;;;9.98;100.00
21236;BME280;10775;42.678;26.324;2023-04-20T02:54:50;98114.00;;;10.17;100.00
21236;BME280;10775;42.678;26.324;2023-04-20T02:57:15;98128.50;;;10.29;100.00
21236;BME280;10775;42.678;26.324;2023-04-20T02:59:41;98125.72;;;10.35;100.00
21236;BME280;10775;42.678;26.324;2023-04-20T03:02:06;98115.63;;;10.21;100.00
21236;BME280;10775;42.678;26.324;2023-04-20T03:04:31;98110.63;;;10.46;100.00
21236;BME280;10775;42.678;26.324;2023-04-20T03:06:57;98119.78;;;10.61;100.00
21236;BME280;10775;42.678;26.324;2023-04-20T03:09:23;98117.22;;;10.89;100.00
21236;BME280;10775;42.678;26.324;2023-04-20T03:11:49;98119.22;;;10.79;100.00
21236;BME280;10775;42.678;26.324;2023-04-20T03:14:14;98118.66;;;10.70;100.00
21236;BME280;10775;42.678;26.324;2023-04-20T03:16:40;98118.88;;;10.92;100.00
21236;BME280;10775;42.678;26.324;2023-04-20T03:19:06;98119.13;;;10.82;100.00
21236;BME280;10775;42.678;26.324;2023-04-20T03:21:31;98118.22;;;10.83;100.00
21236;BME280;10775;42.678;26.324;2023-04-20T03:23:58;98125.84;;;10.91;100.00
21236;BME280;10775;42.678;26.324;2023-04-20T03:26:23;98117.94;;;10.94;100.00
21236;BME280;10775;42.678;26.324;2023-04-20T03:28:49;98120.38;;;10.99;100.00
21236;BME280;10775;42.678;26.324;2023-04-20T03:31:15;98130.66;;;11.05;100.00
21236;BME280;10775;42.678;26.324;2023-04-20T03:33:40;98124.88;;;10.94;100.00
21236;BME280;10775;42.678;26.324;2023-04-20T03:36:06;98131.09;;;11.19;100.00
21236;BME280;10775;42.678;26.324;2023-04-20T03:38:31;98132.75;;;11.22;100.00
21236;BME280;10775;42.678;26.324;2023-04-20T03:40:57;98138.28;;;11.13;100.00
21236;BME280;10775;42.678;26.324;2023-04-20T03:43:22;98133.31;;;11.31;100.00
21236;BME280;10775;42.678;26.324;2023-04-20T03:45:48;98140.31;;;11.31;100.00
21236;BME280;10775;42.678;26.324;2023-04-20T03:48:13;98136.00;;;11.30;100.00
21236;BME280;10775;42.678;26.324;2023-04-20T03:50:39;98142.25;;;11.24;100.00
21236;BME280;10775;42.678;26.324;2023-04-20T03:53:04;98151.13;;;11.20;100.00
21236;BME280;10775;42.678;26.324;2023-04-20T03:55:30;98145.03;;;11.20;100.00
21236;BME280;10775;42.678;26.324;2023-04-20T03:57:55;98159.56;;;11.30;100.00
21236;BME280;10775;42.678;26.324;2023-04-20T04:00:21;98154.09;;;11.38;100.00
21236;BME280;10775;42.678;26.324;2023-04-20T04:02:46;98154.84;;;11.41;100.00
21236;BME280;10775;42.678;26.324;2023-04-20T04:05:12;98160.16;;;11.38;100.00
21236;BME280;10775;42.678;26.324;2023-04-20T04:07:37;98154.94;;;11.38;100.00
21236;BME280;10775;42.678;26.324;2023-04-20T04:10:03;98165.97;;;11.48;100.00
21236;BME280;10775;42.678;26.324;2023-04-20T04:12:30;98153.50;;;11.56;100.00
21236;BME280;10775;42.678;26.324;2023-04-20T04:14:55;98164.25;;;11.47;100.00
21236;BME280;10775;42.678;26.324;2023-04-20T04:17:21;98158.03;;;11.51;100.00
21236;BME280;10775;42.678;26.324;2023-04-20T04:19:46;98157.31;;;11.46;100.00
21236;BME280;10775;42.678;26.324;2023-04-20T04:22:12;98154.69;;;11.46;100.00
21236;BME280;10775;42.678;26.324;2023-04-20T04:24:37;98161.44;;;11.53;100.00
21236;BME280;10775;42.678;26.324;2023-04-20T04:27:03;98162.22;;;11.55;100.00
21236;BME280;10775;42.678;26.324;2023-04-20T04:29:32;98160.63;;;11.51;100.00
21236;BME280;10775;42.678;26.324;2023-04-20T04:32:01;98160.31;;;11.60;100.00
21236;BME280;10775;42.678;26.324;2023-04-20T04:34:27;98163.97;;;11.56;99.79
21236;BME280;10775;42.678;26.324;2023-04-20T04:36:54;98168.34;;;11.56;100.00
21236;BME280;10775;42.678;26.324;2023-04-20T04:39:19;98165.56;;;11.60;100.00
21236;BME280;10775;42.678;26.324;2023-04-20T04:41:45;98165.06;;;11.75;100.00
21236;BME280;10775;42.678;26.324;2023-04-20T04:44:11;98158.00;;;11.78;100.00
21236;BME280;10775;42.678;26.324;2023-04-20T04:46:36;98165.47;;;11.91;100.00
21236;BME280;10775;42.678;26.324;2023-04-20T04:49:02;98161.19;;;11.89;100.00
21236;BME280;10775;42.678;26.324;2023-04-20T04:51:28;98164.03;;;11.81;99.61
21236;BME280;10775;42.678;26.324;2023-04-20T04:53:54;98167.97;;;11.94;99.06
21236;BME280;10775;42.678;26.324;2023-04-20T04:56:20;98166.25;;;11.93;97.60
21236;BME280;10775;42.678;26.324;2023-04-20T04:58:45;98167.50;;;12.08;99.97
21236;BME280;10775;42.678;26.324;2023-04-20T05:01:12;98161.53;;;12.05;94.62
21236;BME280;10775;42.678;26.324;2023-04-20T05:03:38;98156.72;;;12.17;100.00
21236;BME280;10775;42.678;26.324;2023-04-20T05:06:03;98160.22;;;12.16;97.89
21236;BME280;10775;42.678;26.324;2023-04-20T05:08:29;98170.44;;;12.24;100.00
21236;BME280;10775;42.678;26.324;2023-04-20T05:10:56;98166.13;;;12.23;97.55
21236;BME280;10775;42.678;26.324;2023-04-20T05:13:21;98165.97;;;12.28;99.39
21236;BME280;10775;42.678;26.324;2023-04-20T05:15:47;98160.63;;;12.31;99.77
21236;BME280;10775;42.678;26.324;2023-04-20T05:18:12;98162.97;;;12.38;97.69
21236;BME280;10775;42.678;26.324;2023-04-20T05:20:37;98166.44;;;12.39;96.97
21236;BME280;10775;42.678;26.324;2023-04-20T05:23:03;98159.69;;;12.57;95.84
21236;BME280;10775;42.678;26.324;2023-04-20T05:25:29;98172.22;;;12.72;100.00
21236;BME280;10775;42.678;26.324;2023-04-20T05:27:54;98170.69;;;12.67;97.08
21236;BME280;10775;42.678;26.324;2023-04-20T05:30:20;98175.41;;;12.57;96.66
21236;BME280;10775;42.678;26.324;2023-04-20T05:32:46;98170.97;;;12.82;100.00
21236;BME280;10775;42.678;26.324;2023-04-20T05:35:11;98176.47;;;13.00;100.00
21236;BME280;10775;42.678;26.324;2023-04-20T05:37:37;98176.41;;;13.01;98.55
21236;BME280;10775;42.678;26.324;2023-04-20T05:40:03;98170.19;;;13.04;100.00
21236;BME280;10775;42.678;26.324;2023-04-20T05:42:29;98179.22;;;13.19;100.00
21236;BME280;10775;42.678;26.324;2023-04-20T05:44:54;98179.91;;;13.24;100.00
21236;BME280;10775;42.678;26.324;2023-04-20T05:47:20;98178.25;;;13.21;98.46
21236;BME280;10775;42.678;26.324;2023-04-20T05:49:45;98175.47;;;13.26;100.00
21236;BME280;10775;42.678;26.324;2023-04-20T05:52:11;98175.06;;;13.37;100.00
21236;BME280;10775;42.678;26.324;2023-04-20T05:54:37;98173.19;;;13.40;100.00
21236;BME280;10775;42.678;26.324;2023-04-20T05:57:02;98172.09;;;13.46;100.00
21236;BME280;10775;42.678;26.324;2023-04-20T05:59:30;98175.94;;;13.59;100.00
21236;BME280;10775;42.678;26.324;2023-04-20T06:01:55;98161.25;;;13.32;83.49
21236;BME280;10775;42.678;26.324;2023-04-20T06:04:21;98177.09;;;13.52;98.08
21236;BME280;10775;42.678;26.324;2023-04-20T06:06:47;98175.22;;;13.56;98.75
21236;BME280;10775;42.678;26.324;2023-04-20T06:09:12;98172.38;;;13.38;87.50
21236;BME280;10775;42.678;26.324;2023-04-20T06:11:38;98180.00;;;13.44;85.70
21236;BME280;10775;42.678;26.324;2023-04-20T06:14:03;98169.50;;;13.44;81.62
21236;BME280;10775;42.678;26.324;2023-04-20T06:16:29;98177.84;;;13.56;79.86
21236;BME280;10775;42.678;26.324;2023-04-20T06:18:55;98177.41;;;13.66;90.53
21236;BME280;10775;42.678;26.324;2023-04-20T06:21:21;98173.16;;;13.84;81.59
21236;BME280;10775;42.678;26.324;2023-04-20T06:23:48;98175.28;;;13.97;92.94
21236;BME280;10775;42.678;26.324;2023-04-20T06:26:14;98176.16;;;14.18;93.20
21236;BME280;10775;42.678;26.324;2023-04-20T06:28:40;98184.63;;;14.04;86.33
21236;BME280;10775;42.678;26.324;2023-04-20T06:31:05;98180.03;;;14.09;95.06
21236;BME280;10775;42.678;26.324;2023-04-20T06:33:31;98161.97;;;14.22;97.08
21236;BME280;10775;42.678;26.324;2023-04-20T06:35:57;98175.78;;;14.27;100.00
21236;BME280;10775;42.678;26.324;2023-04-20T06:38:23;98170.25;;;14.33;98.75
21236;BME280;10775;42.678;26.324;2023-04-20T06:40:52;98171.75;;;14.59;100.00
21236;BME280;10775;42.678;26.324;2023-04-20T06:43:17;98173.72;;;14.74;100.00
21236;BME280;10775;42.678;26.324;2023-04-20T06:45:43;98181.91;;;14.87;99.34
21236;BME280;10775;42.678;26.324;2023-04-20T06:48:08;98183.13;;;14.99;98.13
21236;BME280;10775;42.678;26.324;2023-04-20T06:50:34;98181.66;;;15.12;97.09
21236;BME280;10775;42.678;26.324;2023-04-20T06:53:02;98174.34;;;14.79;77.43
21236;BME280;10775;42.678;26.324;2023-04-20T06:55:28;98186.47;;;14.84;91.14
21236;BME280;10775;42.678;26.324;2023-04-20T06:57:53;98170.34;;;14.91;93.25
21236;BME280;10775;42.678;26.324;2023-04-20T07:00:19;98168.34;;;14.57;77.07
21236;BME280;10775;42.678;26.324;2023-04-20T07:02:46;98184.84;;;15.00;98.99
21236;BME280;10775;42.678;26.324;2023-04-20T07:05:14;98177.03;;;15.17;100.00
21236;BME280;10775;42.678;26.324;2023-04-20T07:07:40;98187.31;;;15.03;86.73
21236;BME280;10775;42.678;26.324;2023-04-20T07:10:10;98181.44;;;14.59;74.02
21236;BME280;10775;42.678;26.324;2023-04-20T07:12:37;98189.16;;;14.82;77.96
21236;BME280;10775;42.678;26.324;2023-04-20T07:15:04;98182.44;;;15.14;90.49
21236;BME280;10775;42.678;26.324;2023-04-20T07:17:30;98189.78;;;15.27;86.91
21236;BME280;10775;42.678;26.324;2023-04-20T07:19:55;98188.13;;;15.24;89.05
21236;BME280;10775;42.678;26.324;2023-04-20T07:22:22;98184.41;;;15.47;78.04
21236;BME280;10775;42.678;26.324;2023-04-20T07:24:47;98189.84;;;15.61;70.14
21236;BME280;10775;42.678;26.324;2023-04-20T07:27:13;98186.25;;;16.18;81.76
21236;BME280;10775;42.678;26.324;2023-04-20T07:29:38;98193.91;;;16.05;73.23
21236;BME280;10775;42.678;26.324;2023-04-20T07:32:04;98194.78;;;16.23;87.70
21236;BME280;10775;42.678;26.324;2023-04-20T07:34:30;98197.97;;;16.29;83.98
21236;BME280;10775;42.678;26.324;2023-04-20T07:36:55;98199.41;;;15.64;67.52
21236;BME280;10775;42.678;26.324;2023-04-20T07:39:21;98188.31;;;15.57;69.93
21236;BME280;10775;42.678;26.324;2023-04-20T07:41:46;98181.75;;;15.66;81.35
21236;BME280;10775;42.678;26.324;2023-04-20T07:44:12;98188.00;;;15.63;82.59
21236;BME280;10775;42.678;26.324;2023-04-20T07:46:38;98189.16;;;15.58;77.81
21236;BME280;10775;42.678;26.324;2023-04-20T07:49:03;98185.50;;;15.24;74.91
21236;BME280;10775;42.678;26.324;2023-04-20T07:51:30;98194.09;;;15.28;75.90
21236;BME280;10775;42.678;26.324;2023-04-20T07:53:57;98188.19;;;15.04;74.38
21236;BME280;10775;42.678;26.324;2023-04-20T07:56:23;98182.06;;;15.60;88.13
21236;BME280;10775;42.678;26.324;2023-04-20T07:58:48;98191.44;;;15.65;88.50
21236;BME280;10775;42.678;26.324;2023-04-20T08:01:14;98195.44;;;15.74;81.41
21236;BME280;10775;42.678;26.324;2023-04-20T08:03:39;98189.00;;;15.61;71.71
21236;BME280;10775;42.678;26.324;2023-04-20T08:06:05;98194.78;;;15.88;90.20
21236;BME280;10775;42.678;26.324;2023-04-20T08:08:31;98194.25;;;16.16;93.99
21236;BME280;10775;42.678;26.324;2023-04-20T08:10:56;98197.56;;;16.20;86.82
21236;BME280;10775;42.678;26.324;2023-04-20T08:13:25;98182.81;;;16.33;92.29
21236;BME280;10775;42.678;26.324;2023-04-20T08:15:51;98191.53;;;16.35;92.15
21236;BME280;10775;42.678;26.324;2023-04-20T08:18:17;98202.38;;;15.94;68.59
21236;BME280;10775;42.678;26.324;2023-04-20T08:20:42;98191.41;;;15.84;77.43
21236;BME280;10775;42.678;26.324;2023-04-20T08:23:10;98193.25;;;16.19;86.70
21236;BME280;10775;42.678;26.324;2023-04-20T08:25:37;98196.19;;;16.30;78.43
21236;BME280;10775;42.678;26.324;2023-04-20T08:28:04;98199.75;;;16.29;74.24
21236;BME280;10775;42.678;26.324;2023-04-20T08:30:30;98204.53;;;16.38;80.86
21236;BME280;10775;42.678;26.324;2023-04-20T08:32:56;98198.47;;;16.53;91.36
21236;BME280;10775;42.678;26.324;2023-04-20T08:35:22;98197.25;;;16.43;83.47
21236;BME280;10775;42.678;26.324;2023-04-20T08:37:47;98198.59;;;16.17;80.68
21236;BME280;10775;42.678;26.324;2023-04-20T08:40:13;98194.63;;;16.43;71.89
21236;BME280;10775;42.678;26.324;2023-04-20T08:42:39;98187.75;;;16.74;78.57
21236;BME280;10775;42.678;26.324;2023-04-20T08:45:05;98193.19;;;16.71;86.12
21236;BME280;10775;42.678;26.324;2023-04-20T08:47:31;98196.84;;;16.86;86.51
21236;BME280;10775;42.678;26.324;2023-04-20T08:49:58;98195.59;;;16.76;71.12
21236;BME280;10775;42.678;26.324;2023-04-20T08:52:25;98190.28;;;16.60;82.79
21236;BME280;10775;42.678;26.324;2023-04-20T08:54:50;98193.03;;;16.74;82.24
21236;BME280;10775;42.678;26.324;2023-04-20T08:57:15;98187.16;;;15.99;66.36
21236;BME280;10775;42.678;26.324;2023-04-20T08:59:41;98192.09;;;15.71;74.37
21236;BME280;10775;42.678;26.324;2023-04-20T09:02:13;98183.84;;;15.96;64.64
21236;BME280;10775;42.678;26.324;2023-04-20T09:04:39;98190.13;;;15.93;63.87
21236;BME280;10775;42.678;26.324;2023-04-20T09:07:06;98187.47;;;16.28;67.23
21236;BME280;10775;42.678;26.324;2023-04-20T09:09:31;98188.09;;;16.50;77.44
21236;BME280;10775;42.678;26.324;2023-04-20T09:12:07;98187.41;;;16.64;67.91
21236;BME280;10775;42.678;26.324;2023-04-20T09:14:45;98180.94;;;16.70;74.35
21236;BME280;10775;42.678;26.324;2023-04-20T09:17:12;98188.06;;;16.85;66.94
21236;BME280;10775;42.678;26.324;2023-04-20T09:19:39;98190.13;;;16.96;64.74
21236;BME280;10775;42.678;26.324;2023-04-20T09:22:05;98186.44;;;17.16;63.98
21236;BME280;10775;42.678;26.324;2023-04-20T09:24:36;98188.28;;;17.46;65.37
21236;BME280;10775;42.678;26.324;2023-04-20T09:27:14;98182.75;;;17.03;61.06
21236;BME280;10775;42.678;26.324;2023-04-20T09:29:39;98179.34;;;17.32;71.23
21236;BME280;10775;42.678;26.324;2023-04-20T09:32:05;98175.09;;;17.62;73.73
21236;BME280;10775;42.678;26.324;2023-04-20T09:34:41;98181.91;;;17.81;65.65
21236;BME280;10775;42.678;26.324;2023-04-20T09:37:08;98167.50;;;17.87;59.09
21236;BME280;10775;42.678;26.324;2023-04-20T09:39:36;98169.72;;;18.09;59.10
21236;BME280;10775;42.678;26.324;2023-04-20T09:42:05;98172.63;;;18.35;59.04
21236;BME280;10775;42.678;26.324;2023-04-20T09:44:37;98170.44;;;19.15;57.65
21236;BME280;10775;42.678;26.324;2023-04-20T09:47:03;98165.72;;;19.61;59.29
21236;BME280;10775;42.678;26.324;2023-04-20T09:49:28;98158.75;;;18.90;53.97
21236;BME280;10775;42.678;26.324;2023-04-20T09:51:54;98163.34;;;19.57;56.13
21236;BME280;10775;42.678;26.324;2023-04-20T09:54:21;98152.50;;;20.01;53.46
21236;BME280;10775;42.678;26.324;2023-04-20T09:56:47;98144.22;;;20.58;57.35
21236;BME280;10775;42.678;26.324;2023-04-20T09:59:13;98144.50;;;20.41;60.90
21236;BME280;10775;42.678;26.324;2023-04-20T10:01:39;98142.09;;;20.76;64.56
21236;BME280;10775;42.678;26.324;2023-04-20T10:04:06;98137.59;;;20.51;58.06
21236;BME280;10775;42.678;26.324;2023-04-20T10:06:34;98132.59;;;19.81;63.12
21236;BME280;10775;42.678;26.324;2023-04-20T10:09:03;98122.94;;;20.20;58.25
21236;BME280;10775;42.678;26.324;2023-04-20T10:11:30;98133.94;;;20.14;60.64
21236;BME280;10775;42.678;26.324;2023-04-20T10:13:58;98125.63;;;19.39;61.63
21236;BME280;10775;42.678;26.324;2023-04-20T10:16:24;98134.53;;;18.82;56.05
21236;BME280;10775;42.678;26.324;2023-04-20T10:18:57;98132.81;;;18.66;67.73
21236;BME280;10775;42.678;26.324;2023-04-20T10:21:22;98114.81;;;18.43;53.30
21236;BME280;10775;42.678;26.324;2023-04-20T10:23:49;98122.41;;;18.92;58.76
21236;BME280;10775;42.678;26.324;2023-04-20T10:26:15;98114.88;;;19.54;61.10
21236;BME280;10775;42.678;26.324;2023-04-20T10:28:41;98117.72;;;19.24;62.89
21236;BME280;10775;42.678;26.324;2023-04-20T10:31:10;98123.69;;;19.14;61.89
21236;BME280;10775;42.678;26.324;2023-04-20T10:33:51;98116.25;;;18.92;68.11
21236;BME280;10775;42.678;26.324;2023-04-20T10:36:27;98127.31;;;18.69;62.96
21236;BME280;10775;42.678;26.324;2023-04-20T10:38:53;98119.75;;;18.49;66.51
21236;BME280;10775;42.678;26.324;2023-04-20T10:41:19;98114.25;;;18.52;69.51
21236;BME280;10775;42.678;26.324;2023-04-20T10:43:45;98122.66;;;18.73;69.35
21236;BME280;10775;42.678;26.324;2023-04-20T10:46:21;98121.16;;;18.69;60.32
21236;BME280;10775;42.678;26.324;2023-04-20T10:48:57;98124.94;;;18.65;56.72
21236;BME280;10775;42.678;26.324;2023-04-20T10:51:25;98121.91;;;18.57;53.72
21236;BME280;10775;42.678;26.324;2023-04-20T10:54:03;98120.66;;;19.20;55.73
21236;BME280;10775;42.678;26.324;2023-04-20T10:56:56;98125.69;;;18.67;54.10
21236;BME280;10775;42.678;26.324;2023-04-20T10:59:23;98125.75;;;17.76;57.45
21236;BME280;10775;42.678;26.324;2023-04-20T11:01:50;98128.66;;;17.42;59.11
21236;BME280;10775;42.678;26.324;2023-04-20T11:04:16;98136.22;;;17.48;60.54
21236;BME280;10775;42.678;26.324;2023-04-20T11:06:43;98131.28;;;17.10;60.47
21236;BME280;10775;42.678;26.324;2023-04-20T11:09:25;98138.50;;;16.57;62.78
21236;BME280;10775;42.678;26.324;2023-04-20T11:11:59;98141.81;;;16.61;65.78
21236;BME280;10775;42.678;26.324;2023-04-20T11:14:26;98142.59;;;16.63;66.67
21236;BME280;10775;42.678;26.324;2023-04-20T11:16:52;98145.31;;;16.61;65.86
21236;BME280;10775;42.678;26.324;2023-04-20T11:19:26;98146.38;;;16.74;65.66
21236;BME280;10775;42.678;26.324;2023-04-20T11:21:52;98143.19;;;16.52;65.54
21236;BME280;10775;42.678;26.324;2023-04-20T11:24:18;98145.69;;;16.71;65.72
21236;BME280;10775;42.678;26.324;2023-04-20T11:26:45;98144.91;;;16.86;64.88
21236;BME280;10775;42.678;26.324;2023-04-20T11:29:25;98152.41;;;17.10;64.89
21236;BME280;10775;42.678;26.324;2023-04-20T11:31:51;98134.44;;;16.85;63.89
21236;BME280;10775;42.678;26.324;2023-04-20T11:34:16;98124.56;;;17.04;64.41
21236;BME280;10775;42.678;26.324;2023-04-20T11:36:42;98123.06;;;17.78;67.22
21236;BME280;10775;42.678;26.324;2023-04-20T11:39:08;98124.81;;;18.23;68.71
21236;BME280;10775;42.678;26.324;2023-04-20T11:41:43;98125.22;;;18.46;72.91
21236;BME280;10775;42.678;26.324;2023-04-20T11:44:09;98121.72;;;18.45;64.99
21236;BME280;10775;42.678;26.324;2023-04-20T11:46:35;98124.94;;;18.65;60.74
21236;BME280;10775;42.678;26.324;2023-04-20T11:49:02;98119.66;;;18.94;64.06
21236;BME280;10775;42.678;26.324;2023-04-20T11:51:28;98119.44;;;19.11;59.44
21236;BME280;10775;42.678;26.324;2023-04-20T11:53:55;98116.56;;;18.87;63.65
21236;BME280;10775;42.678;26.324;2023-04-20T11:56:21;98124.56;;;18.71;60.83
21236;BME280;10775;42.678;26.324;2023-04-20T11:58:46;98118.84;;;18.20;59.52
21236;BME280;10775;42.678;26.324;2023-04-20T12:01:12;98117.56;;;17.97;59.73
21236;BME280;10775;42.678;26.324;2023-04-20T12:03:38;98120.75;;;17.88;59.95
21236;BME280;10775;42.678;26.324;2023-04-20T12:06:03;98123.91;;;17.78;60.11
21236;BME280;10775;42.678;26.324;2023-04-20T12:08:29;98116.63;;;17.98;60.57
21236;BME280;10775;42.678;26.324;2023-04-20T12:10:54;98114.03;;;18.27;60.99
21236;BME280;10775;42.678;26.324;2023-04-20T12:13:19;98120.16;;;18.13;60.08
21236;BME280;10775;42.678;26.324;2023-04-20T12:15:45;98117.84;;;18.37;62.48
21236;BME280;10775;42.678;26.324;2023-04-20T12:18:10;98116.91;;;18.52;66.80
21236;BME280;10775;42.678;26.324;2023-04-20T12:20:36;98117.84;;;18.37;62.31
21236;BME280;10775;42.678;26.324;2023-04-20T12:23:01;98113.84;;;18.30;69.43
21236;BME280;10775;42.678;26.324;2023-04-20T12:25:27;98115.50;;;18.02;64.59
21236;BME280;10775;42.678;26.324;2023-04-20T12:27:52;98119.09;;;18.01;64.96
21236;BME280;10775;42.678;26.324;2023-04-20T12:30:18;98122.44;;;17.89;67.42
21236;BME280;10775;42.678;26.324;2023-04-20T12:32:43;98113.00;;;17.85;67.97
21236;BME280;10775;42.678;26.324;2023-04-20T12:35:09;98122.72;;;17.68;65.55
21236;BME280;10775;42.678;26.324;2023-04-20T12:37:34;98126.78;;;17.44;62.75
21236;BME280;10775;42.678;26.324;2023-04-20T12:40:00;98117.84;;;17.14;60.05
21236;BME280;10775;42.678;26.324;2023-04-20T12:42:25;98127.44;;;16.66;68.96
21236;BME280;10775;42.678;26.324;2023-04-20T12:44:53;98121.16;;;16.69;61.21